Time;durP1;ratioP1;P1;durP2;ratioP2;P2;SDS_P1;SDS_P2;PMS_P1;PMS_P2;Temp;Humidity;BMP_temperature;BMP_pressure;BME280_temperature;BME280_humidity;BME280_pressure;Samples;Min_cycle;Max_cycle;Signal;HPM_P1;HPM_P2
2022/03/11 00:00:04;;;;;;;25.60;12.53;;;;;;;-4.60;58.24;101703.02;1796877;78;21031;-66
2022/03/11 00:02:36;;;;;;;21.37;12.10;;;;;;;-4.60;58.24;101691.55;1800854;78;21525;-66
2022/03/11 00:05:04;;;;;;;23.62;13.28;;;;;;;-4.58;58.26;101696.32;1799271;78;21080;-66
2022/03/11 00:07:31;;;;;;;28.47;14.55;;;;;;;-4.58;58.25;101703.97;1803422;77;20943;-66
2022/03/11 00:09:57;;;;;;;22.10;12.28;;;;;;;-4.59;58.27;101702.23;1767193;80;21426;-67
2022/03/11 00:12:24;;;;;;;22.73;12.07;;;;;;;-4.61;58.28;101703.83;1798856;78;21454;-66
2022/03/11 00:14:51;;;;;;;21.97;12.80;;;;;;;-4.63;58.28;101698.64;1782524;79;21046;-66
2022/03/11 00:17:18;;;;;;;27.07;12.68;;;;;;;-4.62;58.28;101696.97;1779246;79;22280;-66
2022/03/11 00:19:45;;;;;;;;;;;;;;;-4.66;58.28;101705.28;1780793;79;21062;-66
2022/03/11 00:22:12;;;;;;;24.92;11.60;;;;;;;-4.65;58.37;101704.47;1784584;79;20160;-66
2022/03/11 00:24:38;;;;;;;18.93;11.03;;;;;;;-4.68;58.36;101699.23;1759757;79;21286;-66
2022/03/11 00:27:05;;;;;;;25.83;13.60;;;;;;;-4.69;58.37;101705.15;1802487;78;21066;-66
2022/03/11 00:29:32;;;;;;;21.57;12.03;;;;;;;-4.70;58.36;101698.28;1804734;78;22310;-67
2022/03/11 00:31:58;;;;;;;23.63;12.10;;;;;;;-4.73;58.39;101696.09;1767868;80;21512;-66
2022/03/11 00:34:25;;;;;;;24.43;12.07;;;;;;;-4.76;58.40;101702.33;1800429;78;21042;-66
2022/03/11 00:36:51;;;;;;;26.50;12.60;;;;;;;-4.77;58.36;101705.66;1762070;79;21057;-66
2022/03/11 00:39:18;;;;;;;28.38;12.82;;;;;;;-4.83;58.32;101701.55;1776223;79;20963;-66
2022/03/11 00:41:44;;;;;;;28.87;13.93;;;;;;;-4.87;58.35;101706.05;1774610;79;21575;-66
2022/03/11 00:44:12;;;;;;;24.00;12.83;;;;;;;-4.91;58.39;101699.05;1781297;78;20958;-66
2022/03/11 00:46:39;;;;;;;22.98;11.75;;;;;;;-4.95;58.41;101706.95;1778233;78;21613;-66
2022/03/11 00:49:05;;;;;;;22.40;11.00;;;;;;;-4.99;58.40;101713.09;1771783;80;21492;-66
2022/03/11 00:51:32;;;;;;;24.93;11.93;;;;;;;-5.07;58.52;101707.66;1791765;78;21599;-66
2022/03/11 00:53:59;;;;;;;21.85;11.80;;;;;;;-5.07;58.52;101707.66;1799811;78;21544;-66
2022/03/11 00:56:28;;;;;;;20.85;10.45;;;;;;;-5.08;58.46;101694.83;1800050;78;21529;-66
2022/03/11 00:58:54;;;;;;;24.00;12.03;;;;;;;-5.12;58.51;101698.05;1764665;80;21472;-66
2022/03/11 01:01:21;;;;;;;23.07;12.50;;;;;;;-5.15;58.47;101696.59;1805237;78;21108;-66
2022/03/11 01:03:47;;;;;;;25.63;11.83;;;;;;;-5.18;58.54;101693.53;1800237;78;20989;-66
2022/03/11 01:06:14;;;;;;;26.57;12.00;;;;;;;-5.21;58.57;101696.80;1771401;79;21084;-66
2022/03/11 01:08:41;;;;;;;22.25;10.30;;;;;;;-5.24;58.57;101680.10;1786992;80;21024;-66
2022/03/11 01:11:11;;;;;;;24.23;10.23;;;;;;;-5.27;58.61;101679.92;1761971;80;21527;-66
2022/03/11 01:13:36;;;;;;;19.75;10.75;;;;;;;-5.29;58.69;101689.19;1799955;77;20944;-66
2022/03/11 01:16:03;;;;;;;25.60;11.53;;;;;;;-5.29;58.71;101682.83;1793266;78;21025;-66
2022/03/11 01:18:29;;;;;;;22.40;11.10;;;;;;;-5.31;58.72;101679.32;1781348;80;21596;-66
2022/03/11 01:20:56;;;;;;;18.48;10.03;;;;;;;-5.35;58.71;101682.50;1787253;79;20897;-66
2022/03/11 01:23:23;;;;;;;25.20;11.80;;;;;;;-5.40;58.76;101677.20;1794513;78;20995;-66
2022/03/11 01:25:49;;;;;;;25.77;11.00;;;;;;;-5.41;58.84;101678.39;1793776;78;21583;-66
2022/03/11 01:28:16;;;;;;;20.90;10.23;;;;;;;-5.42;58.91;101672.83;1793360;78;20987;-66
2022/03/11 01:30:42;;;;;;;19.15;9.38;;;;;;;-5.43;58.91;101674.92;1757859;80;21639;-66
2022/03/11 01:33:09;;;;;;;21.62;11.10;;;;;;;-5.44;58.94;101674.42;1796344;78;21476;-66
2022/03/11 01:35:36;;;;;;;19.70;9.53;;;;;;;-5.45;58.95;101668.47;1796726;78;20908;-66
2022/03/11 01:38:02;;;;;;;17.80;9.47;;;;;;;-5.45;58.96;101675.23;1801678;78;20982;-66
2022/03/11 01:40:29;;;;;;;21.93;10.95;;;;;;;-5.45;59.06;101672.69;1805932;78;21010;-66
2022/03/11 01:42:55;;;;;;;20.48;10.48;;;;;;;-5.42;59.00;101676.66;1792374;78;21463;-66
2022/03/11 01:45:22;;;;;;;24.70;10.82;;;;;;;-5.46;58.94;101674.37;1778411;80;21074;-66
2022/03/11 01:47:49;;;;;;;19.40;9.63;;;;;;;-5.49;59.01;101671.67;1779791;78;20942;-66
2022/03/11 01:50:15;;;;;;;18.70;9.10;;;;;;;-5.50;59.01;101675.41;1772366;79;20895;-66
2022/03/11 01:52:42;;;;;;;20.82;9.60;;;;;;;-5.52;59.02;101666.41;1771785;80;21075;-66
2022/03/11 01:55:10;;;;;;;15.55;8.35;;;;;;;-5.55;59.01;101668.80;1795616;78;21457;-66
2022/03/11 01:57:37;;;;;;;17.35;8.68;;;;;;;-5.57;59.02;101669.16;1791197;78;26708;-66
2022/03/11 02:00:07;;;;;;;17.87;9.25;;;;;;;-5.60;58.99;101666.83;1790848;78;20981;-66
2022/03/11 02:02:34;;;;;;;17.82;9.73;;;;;;;-5.60;59.10;101666.83;1773525;78;21096;-66
2022/03/11 02:05:01;;;;;;;18.15;9.70;;;;;;;-5.58;59.18;101672.88;1785411;79;21501;-66
2022/03/11 02:07:28;;;;;;;15.58;8.28;;;;;;;-5.57;59.14;101674.61;1776206;79;21722;-66
2022/03/11 02:09:55;;;;;;;15.18;8.88;;;;;;;-5.56;59.18;101678.92;1770990;79;20939;-66
2022/03/11 02:12:36;;;;;;;16.48;8.15;;;;;;;-5.55;59.17;101680.66;1774374;80;21043;-66
2022/03/11 02:15:05;;;;;;;14.63;8.28;;;;;;;-5.57;59.15;101674.61;1784790;79;20972;-66
2022/03/11 02:17:32;;;;;;;13.25;8.08;;;;;;;-5.60;59.14;101675.36;1778337;79;21075;-66
2022/03/11 02:19:59;;;;;;;15.10;7.95;;;;;;;-5.60;59.20;101673.19;1771643;79;21452;-66
2022/03/11 02:22:26;;;;;;;14.80;7.55;;;;;;;-5.63;59.21;101672.64;1776159;78;21088;-66
2022/03/11 02:24:54;;;;;;;;;;;;;;;-5.64;59.29;101663.27;1798791;79;20946;-66
2022/03/11 02:27:22;;;;;;;14.50;7.35;;;;;;;-5.64;59.33;101670.91;1783704;80;20177;-66
2022/03/11 02:29:49;;;;;;;19.15;8.63;;;;;;;-5.66;59.32;101664.48;1779154;79;21605;-66
2022/03/11 02:32:15;;;;;;;16.57;7.97;;;;;;;-5.67;59.28;101665.27;1771946;79;21060;-66
2022/03/11 02:34:42;;;;;;;15.93;8.07;;;;;;;-5.69;59.29;101666.84;1770330;78;21019;-66
2022/03/11 02:37:09;;;;;;;17.42;8.08;;;;;;;-5.72;59.38;101664.16;1773168;79;21028;-66
2022/03/11 02:39:36;;;;;;;14.00;8.00;;;;;;;-5.73;59.38;101666.23;1749055;79;21024;-66
2022/03/11 02:42:05;;;;;;;15.35;7.47;;;;;;;-5.75;59.38;101662.73;1770739;79;21038;-66
2022/03/11 02:44:31;;;;;;;18.67;9.10;;;;;;;-5.76;59.41;101671.17;1777322;79;21110;-66
2022/03/11 02:46:59;;;;;;;16.95;8.58;;;;;;;-5.77;59.44;101664.35;1769851;79;21017;-66
2022/03/11 02:51:14;;;;;;;14.28;7.97;;;;;;;-5.72;59.42;101665.42;1857417;75;22195;-70
2022/03/11 02:53:42;;;;;;;15.30;8.40;;;;;;;-5.79;59.43;101669.75;1835573;77;20937;-64
2022/03/11 02:56:11;;;;;;;15.43;7.47;;;;;;;-5.82;59.42;101668.33;1834448;77;21434;-64
2022/03/11 02:58:39;;;;;;;17.10;7.37;;;;;;;-5.84;59.40;101677.55;1831045;76;20940;-65
2022/03/11 03:01:07;;;;;;;13.10;6.60;;;;;;;-5.88;59.47;101678.17;1833970;77;21021;-65
2022/03/11 03:03:37;;;;;;;14.75;7.25;;;;;;;-5.88;59.54;101673.08;1832170;77;21037;-65
2022/03/11 03:06:05;;;;;;;15.65;7.22;;;;;;;-5.89;59.53;101678.58;1833225;77;20972;-65
2022/03/11 03:08:32;;;;;;;12.80;7.25;;;;;;;-5.91;59.54;101672.93;1832967;77;21504;-66
2022/03/11 03:10:59;;;;;;;13.18;7.72;;;;;;;-5.91;59.56;101679.30;1832024;77;21056;-66
2022/03/11 03:13:26;;;;;;;15.90;7.65;;;;;;;-5.94;59.58;101674.09;1834459;77;21487;-65
2022/03/11 03:15:52;;;;;;;13.00;7.17;;;;;;;-5.97;59.58;101675.20;1830192;75;20985;-66
2022/03/11 03:18:19;;;;;;;11.30;6.75;;;;;;;-5.98;59.58;101673.47;1835522;77;21030;-66
2022/03/11 03:20:46;;;;;;;11.97;6.73;;;;;;;-6.01;59.62;101666.95;1831193;77;21095;-65
2022/03/11 03:23:13;;;;;;;18.00;8.60;;;;;;;-6.02;59.65;101666.45;1832954;77;21956;-65
2022/03/11 03:25:39;;;;;;;18.23;8.60;;;;;;;-6.02;59.68;101661.38;1835482;76;21075;-66
2022/03/11 03:28:06;;;;;;;15.88;8.35;;;;;;;-6.04;59.68;101660.45;1827702;77;21837;-65
2022/03/11 03:30:32;;;;;;;16.83;8.30;;;;;;;-6.04;59.69;101659.17;1828415;77;20970;-65
2022/03/11 03:32:59;;;;;;;15.28;6.75;;;;;;;-6.07;59.73;101658.62;1836726;77;21098;-66
2022/03/11 03:35:25;;;;;;;18.07;7.27;;;;;;;-6.09;59.76;101655.98;1833788;77;20903;-65
2022/03/11 03:37:52;;;;;;;13.55;7.37;;;;;;;-6.07;59.81;101659.02;1832839;77;21038;-65
2022/03/11 03:40:19;;;;;;;16.60;7.97;;;;;;;-6.07;59.78;101656.48;1827509;77;20978;-65
2022/03/11 03:42:47;;;;;;;16.10;7.23;;;;;;;-6.04;59.87;101660.45;1831786;77;20994;-66
2022/03/11 03:45:14;;;;;;;12.13;6.22;;;;;;;-6.03;59.90;101664.73;1832073;77;21303;-66
2022/03/11 03:47:41;;;;;;;;;;;;;;;-6.02;59.87;101671.55;1835421;77;20967;-66
2022/03/11 03:50:09;;;;;;;11.65;6.83;;;;;;;-6.02;59.86;101662.27;1831538;77;20080;-65
2022/03/11 03:52:35;;;;;;;14.00;7.20;;;;;;;-6.04;59.87;101665.53;1833179;76;21009;-66
2022/03/11 03:55:02;;;;;;;16.73;7.80;;;;;;;-6.04;59.88;101668.08;1836599;75;21550;-66
2022/03/11 03:57:29;;;;;;;18.63;7.70;;;;;;;-6.04;59.97;101667.67;1835111;76;21668;-66
2022/03/11 03:59:55;;;;;;;13.60;6.58;;;;;;;-6.04;59.88;101662.98;1837862;77;20874;-66
2022/03/11 04:02:22;;;;;;;10.83;6.87;;;;;;;-6.05;59.92;101666.30;1830829;77;20969;-66
2022/03/11 04:04:49;;;;;;;11.90;6.90;;;;;;;-6.05;59.97;101659.55;1826819;77;21026;-65
2022/03/11 04:07:15;;;;;;;19.80;8.03;;;;;;;-6.05;60.00;101659.55;1828293;77;20961;-66
2022/03/11 04:09:42;;;;;;;11.15;7.05;;;;;;;-6.03;60.03;101658.37;1829680;77;21172;-66
2022/03/11 04:12:10;;;;;;;27.97;9.13;;;;;;;-6.03;59.98;101662.18;1831056;77;21065;-66
2022/03/11 04:14:37;;;;;;;15.05;7.75;;;;;;;-6.05;60.04;101661.22;1830528;77;21514;-66
2022/03/11 04:17:04;;;;;;;25.37;7.83;;;;;;;-6.05;60.03;101662.09;1836112;77;20959;-65
2022/03/11 04:19:31;;;;;;;;;;;;;;;-6.05;60.06;101661.22;1835753;77;20934;-66
2022/03/11 04:21:57;;;;;;;13.15;7.30;;;;;;;-6.03;60.07;101663.45;1833202;75;21430;-65
2022/03/11 04:24:24;;;;;;;12.45;6.50;;;;;;;-6.03;60.07;101663.45;1835771;77;21555;-65
2022/03/11 04:26:51;;;;;;;13.62;6.47;;;;;;;-6.03;60.10;101669.81;1833637;76;21116;-65
2022/03/11 04:29:18;;;;;;;12.60;6.53;;;;;;;-6.05;60.09;101663.36;1831640;77;20974;-65
2022/03/11 04:31:45;;;;;;;13.20;7.42;;;;;;;-6.04;60.12;101659.17;1829922;77;20993;-66
2022/03/11 04:34:11;;;;;;;14.50;7.50;;;;;;;-6.03;60.13;101658.37;1830473;77;21426;-65
2022/03/11 04:36:38;;;;;;;10.63;6.43;;;;;;;-6.04;60.17;101662.59;1835918;75;21044;-65
2022/03/11 04:39:07;;;;;;;23.20;8.63;;;;;;;-6.05;60.13;101659.55;1830898;77;21060;-66
2022/03/11 04:41:35;;;;;;;24.92;8.33;;;;;;;-6.06;60.11;101662.03;1833118;77;21581;-66
2022/03/11 04:44:03;;;;;;;23.10;9.15;;;;;;;-6.10;60.12;101658.47;1829328;77;21512;-66
2022/03/11 04:46:29;;;;;;;43.05;10.58;;;;;;;-6.15;60.14;101658.22;1839667;77;21997;-66
2022/03/11 04:48:56;;;;;;;26.15;10.40;;;;;;;-6.17;60.18;101657.25;1830529;77;20979;-66
2022/03/11 04:51:25;;;;;;;15.53;8.13;;;;;;;-6.19;60.26;101665.23;1820808;77;20943;-66
2022/03/11 04:53:51;;;;;;;15.98;7.50;;;;;;;-6.19;60.23;101661.41;1811277;77;20999;-65
2022/03/11 04:56:19;;;;;;;15.37;9.20;;;;;;;-6.21;60.24;101663.00;1818996;78;21003;-65
2022/03/11 04:58:46;;;;;;;17.60;9.20;;;;;;;-6.23;60.26;101656.95;1819822;78;21174;-65
2022/03/11 05:01:12;;;;;;;19.45;11.15;;;;;;;-6.25;60.33;101661.07;1821277;77;21614;-65
2022/03/11 05:03:39;;;;;;;26.67;12.50;;;;;;;-6.25;60.33;101658.53;1820116;78;21563;-65
2022/03/11 05:06:05;;;;;;;19.37;10.53;;;;;;;-6.24;60.44;101661.57;1826054;77;21037;-65
2022/03/11 05:08:32;;;;;;;16.73;10.50;;;;;;;-6.23;60.42;101654.41;1823247;77;20923;-65
2022/03/11 05:10:59;;;;;;;17.43;10.03;;;;;;;-6.24;60.44;101660.30;1818976;78;21112;-66
2022/03/11 05:13:25;;;;;;;20.70;9.63;;;;;;;-6.23;60.50;101656.95;1822548;78;20983;-66
2022/03/11 05:15:52;;;;;;;17.97;8.77;;;;;;;-6.22;60.49;101658.69;1820755;78;21001;-65
2022/03/11 05:18:19;;;;;;;27.35;10.13;;;;;;;-6.20;60.51;101659.64;1818314;77;21050;-65
2022/03/11 05:20:46;;;;;;;20.37;9.03;;;;;;;-6.20;60.50;101652.02;1822479;77;21445;-66
2022/03/11 05:23:13;;;;;;;20.03;9.63;;;;;;;-6.19;60.54;101662.69;1819435;77;21095;-66
2022/03/11 05:25:41;;;;;;;23.70;10.77;;;;;;;-6.15;60.64;101653.13;1820107;77;21603;-66
2022/03/11 05:28:08;;;;;;;25.45;9.53;;;;;;;-6.12;60.54;101653.28;1819725;78;21520;-66
2022/03/11 05:30:36;;;;;;;20.60;9.70;;;;;;;-5.98;60.75;101651.84;1821606;78;20978;-65
2022/03/11 05:33:07;;;;;;;18.37;8.95;;;;;;;-5.50;60.95;101651.22;1818808;78;20896;-65
2022/03/11 05:35:34;;;;;;;15.90;9.70;;;;;;;-4.86;60.80;101646.63;1824427;78;21065;-66
2022/03/11 05:38:01;;;;;;;15.15;8.25;;;;;;;-4.23;60.60;101643.45;1824756;77;21000;-65
2022/03/11 05:40:27;;;;;;;21.10;10.82;;;;;;;-3.63;60.41;101645.59;1819075;77;21495;-65
2022/03/11 05:42:54;;;;;;;23.85;10.20;;;;;;;-3.08;60.09;101643.98;1818706;77;20986;-66
2022/03/11 05:45:21;;;;;;;34.98;10.85;;;;;;;-2.60;59.92;101644.09;1824349;77;21132;-66
2022/03/11 05:47:48;;;;;;;32.23;13.22;;;;;;;-2.10;59.74;101642.48;1818621;77;21416;-66
2022/03/11 05:50:14;;;;;;;38.40;12.37;;;;;;;-1.66;59.60;101635.42;1816815;77;21496;-66
2022/03/11 05:52:42;;;;;;;25.87;11.67;;;;;;;-1.35;59.23;101639.84;1819296;77;21039;-63
2022/03/11 05:55:10;;;;;;;19.25;11.12;;;;;;;-1.03;59.28;101636.58;1813713;77;21054;-67
2022/03/11 05:57:37;;;;;;;20.37;10.90;;;;;;;-0.68;58.94;101643.60;1806694;78;20926;-64
2022/03/11 06:00:07;;;;;;;23.57;9.60;;;;;;;-0.44;59.06;101646.44;1814390;78;22781;-63
2022/03/11 06:02:38;;;;;;;24.63;11.30;;;;;;;-0.17;58.85;101642.47;1817784;78;20938;-65
2022/03/11 06:05:10;;;;;;;28.83;12.37;;;;;;;-0.02;58.87;101649.73;1796804;78;21017;-65
2022/03/11 06:07:39;;;;;;;18.90;12.10;;;;;;;0.20;58.94;101646.03;1804545;77;20963;-64
2022/03/11 06:10:07;;;;;;;18.37;12.47;;;;;;;0.43;58.82;101652.61;1810201;77;20985;-64
2022/03/11 06:12:34;;;;;;;19.80;11.78;;;;;;;0.54;58.49;101659.73;1810792;78;21112;-64
2022/03/11 06:15:08;;;;;;;23.95;12.53;;;;;;;0.59;58.60;101656.45;1808797;78;21017;-64
2022/03/11 06:17:35;;;;;;;21.93;12.90;;;;;;;0.70;58.53;101666.09;1814676;77;20988;-64
2022/03/11 06:20:02;;;;;;;22.97;13.07;;;;;;;0.72;58.28;101667.02;1817445;77;21588;-64
2022/03/11 06:22:29;;;;;;;21.02;12.65;;;;;;;0.72;58.35;101672.16;1777804;78;21072;-64
2022/03/11 06:24:58;;;;;;;18.37;12.05;;;;;;;0.83;58.51;101670.70;1766739;80;21459;-65
2022/03/11 06:27:26;;;;;;;21.05;13.45;;;;;;;1.02;58.56;101678.02;1763968;79;20929;-65
2022/03/11 06:29:53;;;;;;;19.50;11.70;;;;;;;1.14;57.98;101673.98;1761426;79;21040;-64
2022/03/11 06:32:20;;;;;;;23.47;12.40;;;;;;;1.11;58.03;101670.51;1729986;80;21088;-64
2022/03/11 06:34:48;;;;;;;22.58;12.95;;;;;;;1.19;58.10;101682.69;1751880;80;21037;-65
2022/03/11 06:37:15;;;;;;;;;;;;;;;1.32;58.04;101679.56;1777657;80;21086;-65
2022/03/11 06:41:55;;;;;;;15.80;8.35;;;;;;;1.72;57.92;101672.66;1816149;77;22671;-65
2022/03/11 06:44:22;;;;;;;23.57;8.43;;;;;;;1.81;57.71;101683.14;1776490;78;21073;-65
2022/03/11 06:46:48;;;;;;;13.73;7.90;;;;;;;1.90;57.47;101680.73;1766214;80;22421;-63
2022/03/11 06:49:15;;;;;;;12.20;6.85;;;;;;;2.06;57.61;101681.05;1771870;79;21001;-65
2022/03/11 06:51:42;;;;;;;10.47;7.37;;;;;;;2.33;57.59;101669.95;1759195;78;20930;-65
2022/03/11 06:54:09;;;;;;;27.02;8.98;;;;;;;2.44;57.21;101672.30;1764354;78;21032;-65
2022/03/11 06:56:36;;;;;;;11.93;7.77;;;;;;;2.57;57.54;101676.37;1783100;78;21618;-65
2022/03/11 06:59:04;;;;;;;14.78;11.50;;;;;;;2.65;57.13;101670.92;1780031;78;22234;-65
2022/03/11 07:01:31;;;;;;;27.48;13.13;;;;;;;2.73;57.20;101674.48;1780928;79;20989;-65
2022/03/11 07:04:00;;;;;;;12.33;7.78;;;;;;;2.82;57.27;101673.34;1782792;78;21143;-65
2022/03/11 07:06:27;;;;;;;26.62;9.15;;;;;;;3.05;57.11;101674.11;1788643;78;21064;-65
2022/03/11 07:08:53;;;;;;;12.93;7.93;;;;;;;3.18;56.89;101669.58;1788352;79;20981;-65
2022/03/11 07:11:20;;;;;;;12.93;7.45;;;;;;;3.29;56.77;101670.59;1788160;79;21129;-65
2022/03/11 07:13:48;;;;;;;10.80;6.87;;;;;;;3.26;56.44;101669.27;1785072;78;21013;-65
2022/03/11 07:16:14;;;;;;;24.10;6.92;;;;;;;3.20;56.77;101661.88;1780577;78;21105;-65
2022/03/11 07:18:41;;;;;;;10.60;6.97;;;;;;;2.93;56.35;101673.94;1788764;79;20994;-65
2022/03/11 07:21:08;;;;;;;10.88;7.03;;;;;;;2.73;56.41;101681.37;1782846;79;20957;-65
2022/03/11 07:23:35;;;;;;;9.10;5.67;;;;;;;2.74;56.03;101683.95;1788827;78;22284;-65
2022/03/11 07:26:04;;;;;;;10.70;6.47;;;;;;;2.70;55.99;101677.02;1786249;79;20943;-65
2022/03/11 07:28:30;;;;;;;16.40;6.62;;;;;;;2.70;55.79;101682.19;1790783;78;21679;-65
2022/03/11 07:30:57;;;;;;;10.13;6.03;;;;;;;2.63;55.61;101677.36;1785039;78;21042;-65
2022/03/11 07:33:27;;;;;;;16.45;11.25;;;;;;;2.65;55.69;101670.92;1787395;79;21571;-65
2022/03/11 07:35:55;;;;;;;8.08;5.62;;;;;;;2.62;55.39;101673.45;1755978;80;21037;-65
2022/03/11 07:38:30;;;;;;;7.87;4.92;;;;;;;2.45;55.29;101668.01;1706199;82;21058;-65
2022/03/11 07:40:53;;;;;;;10.35;6.37;;;;;;;2.23;55.41;101677.07;1717777;81;20974;-65
2022/03/11 07:43:22;;;;;;;7.47;5.60;;;;;;;2.09;55.45;101665.64;1732927;82;21022;-65
2022/03/11 07:45:48;;;;;;;11.57;6.65;;;;;;;1.92;55.55;101666.19;1727339;82;21010;-65
2022/03/11 07:48:15;;;;;;;8.20;5.90;;;;;;;1.75;55.48;101672.30;1721013;81;21583;-65
2022/03/11 07:50:42;;;;;;;9.37;6.23;;;;;;;1.64;55.36;101667.77;1727257;81;21002;-65
2022/03/11 07:53:09;;;;;;;13.60;6.67;;;;;;;1.58;55.47;101663.80;1729053;81;20962;-65
2022/03/11 07:55:35;;;;;;;25.25;7.55;;;;;;;1.45;55.36;101662.23;1707237;82;21622;-64
2022/03/11 07:58:02;;;;;;;12.60;7.47;;;;;;;1.39;55.09;101665.97;1712411;82;21099;-65
2022/03/11 08:00:29;;;;;;;13.50;7.10;;;;;;;1.22;54.90;101658.31;1746216;80;22280;-65
2022/03/11 08:02:56;;;;;;;38.23;9.00;;;;;;;1.22;55.37;101658.31;1728108;81;21349;-65
2022/03/11 08:05:23;;;;;;;10.70;7.07;;;;;;;1.22;55.37;101658.31;1712947;81;21137;-65
2022/03/11 08:07:50;;;;;;;29.70;7.78;;;;;;;1.25;54.99;101657.09;1716046;82;20997;-66
2022/03/11 08:10:18;;;;;;;11.73;6.45;;;;;;;1.21;54.43;101655.30;1742552;82;20954;-65
2022/03/11 08:12:46;;;;;;;10.48;5.80;;;;;;;1.16;54.25;101651.75;1724066;81;21087;-65
2022/03/11 08:15:13;;;;;;;10.48;6.53;;;;;;;1.13;54.49;101655.12;1741916;80;20949;-65
2022/03/11 08:17:41;;;;;;;9.73;5.62;;;;;;;1.15;54.37;101646.13;1743286;80;21024;-67
2022/03/11 08:20:10;;;;;;;13.62;5.87;;;;;;;1.21;54.44;101648.86;1743763;80;21495;-64
2022/03/11 08:22:39;;;;;;;12.55;6.70;;;;;;;1.30;54.60;101644.77;1720273;82;20986;-65
2022/03/11 08:25:09;;;;;;;10.38;6.20;;;;;;;1.40;54.18;101639.41;1728752;81;21072;-64
2022/03/11 08:27:36;;;;;;;9.00;5.58;;;;;;;1.47;54.29;101638.69;1725200;82;21102;-65
2022/03/11 08:30:08;;;;;;;10.08;5.92;;;;;;;1.63;54.19;101641.59;1726620;81;21062;-64
2022/03/11 08:32:41;;;;;;;10.65;6.37;;;;;;;1.70;54.11;101642.14;1727998;81;21122;-64
2022/03/11 08:35:10;;;;;;;10.75;6.03;;;;;;;1.79;54.01;101643.60;1718682;81;21567;-63
2022/03/11 08:37:38;;;;;;;27.50;7.35;;;;;;;1.86;54.01;101637.73;1717205;81;21472;-64
2022/03/11 08:40:10;;;;;;;;;;;;;;;2.00;54.04;101642.73;1710614;81;21140;-65
2022/03/11 08:42:35;;;;;;;9.65;6.85;;;;;;;2.12;53.71;101647.66;1722242;81;20190;-65
2022/03/11 08:45:04;;;;;;;99.95;44.05;;;;;;;2.10;53.53;101639.02;1721238;81;21076;-65
2022/03/11 08:47:32;;;;;;;23.32;11.88;;;;;;;2.11;53.55;101648.08;1736996;82;21065;-65
2022/03/11 08:50:00;;;;;;;9.20;6.30;;;;;;;2.16;53.35;101636.58;1705852;82;21819;-64
2022/03/11 08:52:28;;;;;;;19.05;7.00;;;;;;;2.20;53.33;101639.22;1739739;81;20952;-65
2022/03/11 08:54:57;;;;;;;14.60;6.03;;;;;;;2.30;53.35;101647.11;1736524;80;21001;-64
2022/03/11 08:57:27;;;;;;;25.75;7.03;;;;;;;2.36;53.08;101648.09;1739213;80;21219;-64
2022/03/11 08:59:59;;;;;;;42.85;7.35;;;;;;;2.39;53.19;101639.12;1735467;80;21013;-66
2022/03/11 09:02:26;;;;;;;11.43;4.92;;;;;;;2.48;52.85;101638.83;1711089;81;21251;-65
2022/03/11 09:04:53;;;;;;;8.38;4.05;;;;;;;2.51;52.82;101641.46;1739034;81;20997;-63
2022/03/11 09:07:20;;;;;;;6.10;4.25;;;;;;;2.57;52.41;101650.58;1732111;81;21061;-65
2022/03/11 09:09:47;;;;;;;46.73;27.63;;;;;;;2.56;52.46;101648.85;1721942;81;20938;-65
2022/03/11 09:12:14;;;;;;;39.73;21.87;;;;;;;2.52;52.38;101650.92;1688666;81;21013;-65
2022/03/11 09:14:41;;;;;;;13.28;8.43;;;;;;;2.48;52.38;101651.72;1750260;80;21154;-65
2022/03/11 09:17:08;;;;;;;12.37;7.95;;;;;;;2.44;52.33;101654.25;1729346;82;21733;-65
2022/03/11 09:19:35;;;;;;;25.08;13.32;;;;;;;2.55;52.46;101650.97;1708097;82;21061;-65
2022/03/11 09:22:03;;;;;;;16.93;9.57;;;;;;;2.63;52.57;101651.96;1737584;82;21564;-65
2022/03/11 09:24:29;;;;;;;78.00;16.20;;;;;;;2.68;52.19;101650.33;1736141;81;21096;-65
2022/03/11 09:26:56;;;;;;;51.40;29.40;;;;;;;2.69;52.11;101650.80;1722294;82;21971;-65
2022/03/11 09:29:23;;;;;;;41.50;24.20;;;;;;;2.72;51.93;101646.08;1747365;80;21024;-65
2022/03/11 09:31:50;;;;;;;14.20;6.95;;;;;;;2.71;52.03;101650.37;1726785;81;20990;-65
2022/03/11 09:34:17;;;;;;;64.90;35.30;;;;;;;2.71;51.25;101650.37;1725564;82;21027;-65
2022/03/11 09:36:44;;;;;;;49.88;25.37;;;;;;;2.63;51.74;101646.80;1738670;81;21015;-65
2022/03/11 09:39:11;;;;;;;;;;;;;;;2.73;51.82;101650.41;1752206;80;22068;-65
2022/03/11 09:41:39;;;;;;;40.00;24.63;;;;;;;2.75;51.23;101651.31;1724733;81;20307;-65
2022/03/11 09:44:06;;;;;;;42.33;26.82;;;;;;;2.62;50.41;101652.39;1724642;81;21002;-65
2022/03/11 09:46:37;;;;;;;51.05;30.95;;;;;;;2.56;50.86;101642.41;1727418;81;21035;-65
2022/03/11 09:49:07;;;;;;;19.48;11.78;;;;;;;2.53;50.42;101647.52;1716777;81;20998;-66
2022/03/11 09:51:37;;;;;;;57.17;28.27;;;;;;;2.53;50.66;101644.94;1719866;81;21262;-66
2022/03/11 09:54:08;;;;;;;50.03;28.60;;;;;;;2.55;50.73;101644.52;1709792;82;21038;-65
2022/03/11 09:56:38;;;;;;;22.98;15.03;;;;;;;2.59;50.17;101637.30;1706025;82;21006;-66
2022/03/11 09:59:09;;;;;;;12.40;5.85;;;;;;;2.57;49.78;101644.99;1734301;81;20977;-67
2022/03/11 10:01:44;;;;;;;5.45;3.90;;;;;;;2.57;50.14;101644.13;1733803;81;20992;-67
2022/03/11 10:04:15;;;;;;;9.40;6.58;;;;;;;2.62;50.14;101643.36;1720601;81;21015;-68
2022/03/11 10:06:49;;;;;;;14.78;7.33;;;;;;;2.64;50.08;101638.24;1746352;80;21198;-67
2022/03/11 10:09:26;;;;;;;10.03;6.40;;;;;;;2.68;50.20;101640.88;1748606;80;20926;-67
2022/03/11 10:11:57;;;;;;;8.20;5.05;;;;;;;2.72;49.48;101636.66;1720626;81;21047;-72
2022/03/11 10:14:31;;;;;;;14.47;8.10;;;;;;;2.71;49.36;101633.61;1720333;81;21024;-69
2022/03/11 10:17:04;;;;;;;17.40;9.38;;;;;;;2.72;49.77;101631.49;1742359;80;20988;-69
2022/03/11 10:19:35;;;;;;;13.18;8.35;;;;;;;2.84;49.58;101632.95;1747767;80;21060;-64
2022/03/11 10:22:03;;;;;;;17.70;9.00;;;;;;;2.88;49.45;101633.44;1726483;82;22343;-68
2022/03/11 10:24:31;;;;;;;;;;;;;;;2.94;49.36;101633.98;1729832;82;20971;-65
2022/03/11 10:27:02;;;;;;;10.15;6.30;;;;;;;2.97;48.91;101624.09;1723145;81;20199;-69
2022/03/11 10:29:34;;;;;;;14.23;6.78;;;;;;;3.02;49.25;101625.89;1709282;82;21103;-66
2022/03/11 10:32:03;;;;;;;7.78;5.35;;;;;;;3.14;49.28;101630.39;1740791;80;21014;-69
2022/03/11 10:34:50;;;;;;;16.62;9.58;;;;;;;3.23;49.28;101617.59;1750132;80;21068;-68
2022/03/11 10:37:17;;;;;;;12.68;7.40;;;;;;;3.26;48.95;101617.63;1779922;78;21049;-71
2022/03/11 10:39:48;;;;;;;19.95;12.15;;;;;;;3.32;49.17;101615.12;1781110;79;21132;-66
2022/03/11 10:42:24;;;;;;;23.00;13.65;;;;;;;3.41;48.96;101600.59;1779890;79;21071;-70
2022/03/11 10:45:01;;;;;;;12.30;8.00;;;;;;;3.47;49.06;101605.83;1775372;79;21029;-66
2022/03/11 10:47:37;;;;;;;15.93;9.43;;;;;;;3.54;48.76;101597.31;1781817;79;21503;-65
2022/03/11 10:50:16;;;;;;;16.15;9.45;;;;;;;3.59;48.69;101605.99;1780056;79;21037;-66
2022/03/11 10:52:46;;;;;;;18.60;9.38;;;;;;;3.69;48.82;101597.47;1779214;79;21489;-66
2022/03/11 10:55:26;;;;;;;18.23;9.90;;;;;;;3.76;48.77;101596.70;1782114;79;21746;-65
2022/03/11 10:57:59;;;;;;;10.55;6.45;;;;;;;3.86;48.75;101599.37;1779231;79;20982;-64
2022/03/11 11:00:30;;;;;;;11.65;7.85;;;;;;;3.98;48.93;101599.52;1778866;79;20941;-64
2022/03/11 11:03:01;;;;;;;15.72;6.90;;;;;;;4.06;48.22;101592.67;1777834;79;21477;-63
2022/03/11 11:05:28;;;;;;;8.98;5.75;;;;;;;3.96;47.86;101580.53;1783688;79;21473;-64
2022/03/11 11:07:57;;;;;;;16.77;5.42;;;;;;;3.92;48.03;101584.81;1783739;79;21071;-65
2022/03/11 11:10:26;;;;;;;8.83;4.80;;;;;;;3.97;47.90;101590.87;1783063;79;20926;-66
2022/03/11 11:12:53;;;;;;;11.15;5.08;;;;;;;3.94;47.83;101584.38;1773086;79;20939;-64
2022/03/11 11:15:22;;;;;;;7.80;4.55;;;;;;;3.86;46.91;101573.53;1776385;79;20922;-64
2022/03/11 11:17:51;;;;;;;6.87;4.20;;;;;;;3.88;47.63;101579.59;1784831;79;20920;-67
2022/03/11 11:20:46;;;;;;;6.75;3.62;;;;;;;3.99;47.58;101576.68;1750444;80;21104;-69
2022/03/11 11:23:16;;;;;;;9.00;4.08;;;;;;;4.09;46.95;101577.22;1779070;79;20961;-68
2022/03/11 11:25:44;;;;;;;4.45;3.10;;;;;;;4.21;47.00;101573.44;1780732;79;20878;-66
2022/03/11 11:28:19;;;;;;;13.32;4.20;;;;;;;4.29;47.06;101563.59;1741729;81;20858;-66